Time,TemperatureF,DewpointF,PressureIn,WindDirection,WindDirectionDegrees,WindSpeedMPH,WindSpeedGustMPH,Humidity,HourlyPrecipIn,Conditions,Clouds,dailyrainin,SoftwareType,DateUTC
2013-04-21 00:02:00,25.0,22.0,-100.00,ENE,70,0.0,0.0,89,-99.99,,,-99.99,,2013-04-21 05:02:00,
2013-04-21 00:12:00,25.0,22.0,-100.00,ENE,70,0.0,0.0,89,-99.99,,,-99.99,,2013-04-21 05:12:00,
2013-04-21 00:20:00,25.0,22.0,-100.00,East,90,0.0,0.0,90,-99.99,,,-99.99,,2013-04-21 05:20:00,
2013-04-21 00:43:00,25.0,22.0,-100.00,East,90,0.0,0.0,90,-99.99,,,-99.99,,2013-04-21 05:43:00,
2013-04-21 00:52:00,25.0,22.0,-100.00,East,90,0.0,0.0,90,-99.99,,,-99.99,,2013-04-21 05:52:00,
2013-04-21 01:01:00,25.0,22.0,-100.00,East,90,0.0,0.0,90,-99.99,,,-99.99,,2013-04-21 06:01:00,
2013-04-21 01:12:00,25.0,22.0,-100.00,East,90,0.0,0.0,90,-99.99,,,-99.99,,2013-04-21 06:12:00,
2013-04-21 02:42:00,29.0,16.0,-100.00,East,90,0.0,0.0,58,-99.99,,,-99.99,,2013-04-21 07:42:00,
2013-04-21 02:52:00,29.0,16.0,-100.00,East,90,0.0,0.0,58,-99.99,,,-99.99,,2013-04-21 07:52:00,
2013-04-21 03:01:00,29.0,16.0,-100.00,East,90,0.0,0.0,58,-99.99,,,-99.99,,2013-04-21 08:01:00,
2013-04-21 03:12:00,29.0,16.0,-100.00,East,90,0.0,0.0,58,-99.99,,,-99.99,,2013-04-21 08:12:00,
2013-04-21 03:20:00,30.0,13.0,-100.00,SSE,155,0.0,0.0,49,-99.99,,,-99.99,,2013-04-21 08:20:00,
2013-04-21 03:42:00,30.0,13.0,-100.00,SSE,155,0.0,0.0,49,-99.99,,,-99.99,,2013-04-21 08:42:00,
2013-04-21 03:52:00,30.0,13.0,-100.00,SSE,155,0.0,0.0,49,-99.99,,,-99.99,,2013-04-21 08:52:00,
2013-04-21 04:02:00,30.0,13.0,-100.00,SSE,155,0.0,0.0,49,-99.99,,,-99.99,,2013-04-21 09:02:00,
2013-04-21 04:12:00,30.0,13.0,-100.00,SSE,155,0.0,0.0,49,-99.99,,,-99.99,,2013-04-21 09:12:00,
2013-04-21 04:43:00,32.0,13.0,-100.00,SE,140,0.0,0.0,47,-99.99,,,-99.99,,2013-04-21 09:43:00,
2013-04-21 04:53:00,32.0,13.0,-100.00,SE,140,0.0,0.0,47,-99.99,,,-99.99,,2013-04-21 09:53:00,
2013-04-21 05:03:00,32.0,13.0,-100.00,SE,140,0.0,0.0,47,-99.99,,,-99.99,,2013-04-21 10:03:00,
2013-04-21 05:12:00,32.0,13.0,-100.00,SE,140,0.0,0.0,47,-99.99,,,-99.99,,2013-04-21 10:12:00,
2013-04-21 05:22:00,32.0,19.0,-100.00,South,170,0.0,0.0,58,-99.99,,,-99.99,,2013-04-21 10:22:00,
2013-04-21 05:42:00,32.0,19.0,-100.00,South,170,0.0,0.0,58,-99.99,,,-99.99,,2013-04-21 10:42:00,
2013-04-21 05:52:00,32.0,19.0,-100.00,South,170,0.0,0.0,58,-99.99,,,-99.99,,2013-04-21 10:52:00,
2013-04-21 06:02:00,32.0,19.0,-100.00,South,170,0.0,0.0,58,-99.99,,,-99.99,,2013-04-21 11:02:00,
2013-04-21 06:12:00,32.0,19.0,-100.00,South,170,0.0,0.0,58,-99.99,,,-99.99,,2013-04-21 11:12:00,
2013-04-21 06:20:00,31.0,28.0,-100.00,SE,125,0.0,0.0,87,-99.99,,,-99.99,,2013-04-21 11:20:00,
2013-04-21 06:42:00,31.0,28.0,-100.00,SE,125,0.0,0.0,87,-99.99,,,-99.99,,2013-04-21 11:42:00,
2013-04-21 06:52:00,31.0,28.0,-100.00,SE,125,0.0,0.0,87,-99.99,,,-99.99,,2013-04-21 11:52:00,
2013-04-21 07:02:00,31.0,28.0,-100.00,SE,125,0.0,0.0,87,-99.99,,,-99.99,,2013-04-21 12:02:00,
2013-04-21 07:12:00,31.0,28.0,-100.00,SE,125,0.0,0.0,87,-99.99,,,-99.99,,2013-04-21 12:12:00,
2013-04-21 08:42:00,34.0,31.0,-100.00,SE,130,0.0,0.0,88,-99.99,,,-99.99,,2013-04-21 13:42:00,
2013-04-21 08:52:00,34.0,31.0,-100.00,SE,130,0.0,0.0,88,-99.99,,,-99.99,,2013-04-21 13:52:00,
2013-04-21 09:02:00,34.0,31.0,-100.00,SE,130,0.0,0.0,88,-99.99,,,-99.99,,2013-04-21 14:02:00,
2013-04-21 09:11:00,34.0,31.0,-100.00,SE,130,0.0,0.0,88,-99.99,,,-99.99,,2013-04-21 14:11:00,
2013-04-21 10:20:00,36.0,32.0,-100.00,SSE,150,0.0,0.0,85,-99.99,,,-99.99,,2013-04-21 15:20:00,
2013-04-21 10:43:00,36.0,32.0,-100.00,SSE,150,0.0,0.0,85,-99.99,,,-99.99,,2013-04-21 15:43:00,
2013-04-21 10:53:00,36.0,32.0,-100.00,SSE,150,0.0,0.0,85,-99.99,,,-99.99,,2013-04-21 15:53:00,
2013-04-21 11:03:00,36.0,32.0,-100.00,SSE,150,0.0,0.0,85,-99.99,,,-99.99,,2013-04-21 16:03:00,
2013-04-21 11:12:00,36.0,32.0,-100.00,SSE,150,0.0,0.0,85,-99.99,,,-99.99,,2013-04-21 16:12:00,
2013-04-21 11:20:00,36.0,33.0,-100.00,SE,145,0.0,0.0,91,-99.99,,,-99.99,,2013-04-21 16:20:00,
2013-04-21 11:42:00,36.0,33.0,-100.00,SE,145,0.0,0.0,91,-99.99,,,-99.99,,2013-04-21 16:42:00,
2013-04-21 11:53:00,36.0,33.0,-100.00,SE,145,0.0,0.0,91,-99.99,,,-99.99,,2013-04-21 16:53:00,
2013-04-21 12:02:00,36.0,33.0,-100.00,SE,145,0.0,0.0,91,-99.99,,,-99.99,,2013-04-21 17:02:00,
2013-04-21 12:12:00,36.0,33.0,-100.00,SE,145,0.0,0.0,91,-99.99,,,-99.99,,2013-04-21 17:12:00,
2013-04-21 12:21:00,39.0,32.0,-100.00,SE,145,7.0,22.0,75,-99.99,,,-99.99,,2013-04-21 17:21:00,
2013-04-21 12:42:00,39.0,32.0,-100.00,SE,145,7.0,22.0,75,-99.99,,,-99.99,,2013-04-21 17:42:00,
2013-04-21 12:52:00,39.0,32.0,-100.00,SE,145,7.0,22.0,75,-99.99,,,-99.99,,2013-04-21 17:52:00,
2013-04-21 13:02:00,39.0,32.0,-100.00,SE,145,7.0,22.0,75,-99.99,,,-99.99,,2013-04-21 18:02:00,
2013-04-21 13:11:00,39.0,32.0,-100.00,SE,145,7.0,22.0,75,-99.99,,,-99.99,,2013-04-21 18:11:00,
2013-04-21 13:42:00,40.0,32.0,-100.00,SE,140,9.0,21.0,71,-99.99,,,-99.99,,2013-04-21 18:42:00,
2013-04-21 13:52:00,40.0,32.0,-100.00,SE,140,9.0,21.0,71,-99.99,,,-99.99,,2013-04-21 18:52:00,
2013-04-21 14:02:00,40.0,32.0,-100.00,SE,140,9.0,21.0,71,-99.99,,,-99.99,,2013-04-21 19:02:00,
2013-04-21 14:12:00,40.0,32.0,-100.00,SE,140,9.0,21.0,71,-99.99,,,-99.99,,2013-04-21 19:12:00,
2013-04-21 14:20:00,41.0,32.0,-100.00,SSE,160,7.0,18.0,69,-99.99,,,-99.99,,2013-04-21 19:20:00,
2013-04-21 14:43:00,41.0,32.0,-100.00,SSE,160,7.0,18.0,69,-99.99,,,-99.99,,2013-04-21 19:43:00,
2013-04-21 14:52:00,41.0,32.0,-100.00,SSE,160,7.0,18.0,69,-99.99,,,-99.99,,2013-04-21 19:52:00,
2013-04-21 15:02:00,41.0,32.0,-100.00,SSE,160,7.0,18.0,69,-99.99,,,-99.99,,2013-04-21 20:02:00,
2013-04-21 15:11:00,41.0,32.0,-100.00,SSE,160,7.0,18.0,69,-99.99,,,-99.99,,2013-04-21 20:11:00,
2013-04-21 15:42:00,41.0,31.0,-100.00,ESE,120,6.0,17.0,69,-99.99,,,-99.99,,2013-04-21 20:42:00,
2013-04-21 15:52:00,41.0,31.0,-100.00,ESE,120,6.0,17.0,69,-99.99,,,-99.99,,2013-04-21 20:52:00,
2013-04-21 16:02:00,41.0,31.0,-100.00,ESE,120,6.0,17.0,69,-99.99,,,-99.99,,2013-04-21 21:02:00,
2013-04-21 16:12:00,41.0,31.0,-100.00,ESE,120,6.0,17.0,69,-99.99,,,-99.99,,2013-04-21 21:12:00,
2013-04-21 16:21:00,41.0,31.0,-100.00,ESE,120,6.0,17.0,69,-99.99,,,-99.99,,2013-04-21 21:21:00,
2013-04-21 16:43:00,41.0,32.0,-100.00,SE,135,5.0,18.0,70,-99.99,,,-99.99,,2013-04-21 21:43:00,
2013-04-21 16:53:00,41.0,32.0,-100.00,SE,135,5.0,18.0,70,-99.99,,,-99.99,,2013-04-21 21:53:00,
2013-04-21 17:02:00,41.0,32.0,-100.00,SE,135,5.0,18.0,70,-99.99,,,-99.99,,2013-04-21 22:02:00,
2013-04-21 17:12:00,41.0,32.0,-100.00,SE,135,5.0,18.0,70,-99.99,,,-99.99,,2013-04-21 22:12:00,
2013-04-21 17:43:00,40.0,34.0,-100.00,SE,130,6.0,14.0,78,-99.99,,,-99.99,,2013-04-21 22:43:00,
2013-04-21 17:52:00,40.0,34.0,-100.00,SE,130,6.0,14.0,78,-99.99,,,-99.99,,2013-04-21 22:52:00,
2013-04-21 18:02:00,40.0,34.0,-100.00,SE,130,6.0,14.0,78,-99.99,,,-99.99,,2013-04-21 23:02:00,
2013-04-21 18:12:00,40.0,34.0,-100.00,SE,130,6.0,14.0,78,-99.99,,,-99.99,,2013-04-21 23:12:00,
2013-04-21 18:43:00,40.0,37.0,-100.00,SE,145,6.0,11.0,89,-99.99,,,-99.99,,2013-04-21 23:43:00,
2013-04-21 18:52:00,40.0,37.0,-100.00,SE,145,6.0,11.0,89,-99.99,,,-99.99,,2013-04-21 23:52:00,
2013-04-21 19:01:00,40.0,37.0,-100.00,SE,145,6.0,11.0,89,-99.99,,,-99.99,,2013-04-22 00:01:00,
2013-04-21 19:11:00,40.0,37.0,-100.00,SE,145,6.0,11.0,89,-99.99,,,-99.99,,2013-04-22 00:11:00,
2013-04-21 19:21:00,40.0,37.0,-100.00,SE,145,6.0,11.0,89,-99.99,,,-99.99,,2013-04-22 00:21:00,
2013-04-21 20:42:00,41.0,40.0,-100.00,SSE,150,4.0,9.0,98,-99.99,,,-99.99,,2013-04-22 01:42:00,
2013-04-21 20:52:00,41.0,40.0,-100.00,SSE,150,4.0,9.0,98,-99.99,,,-99.99,,2013-04-22 01:52:00,
2013-04-21 21:02:00,41.0,40.0,-100.00,SSE,150,4.0,9.0,98,-99.99,,,-99.99,,2013-04-22 02:02:00,
2013-04-21 21:11:00,41.0,40.0,-100.00,SSE,150,4.0,9.0,98,-99.99,,,-99.99,,2013-04-22 02:11:00,
2013-04-21 21:21:00,41.0,40.0,-100.00,SSE,150,4.0,9.0,98,-99.99,,,-99.99,,2013-04-22 02:21:00,
2013-04-21 21:22:00,40.0,40.0,-100.00,SSE,160,4.0,9.0,98,-99.99,,,-99.99,,2013-04-22 02:22:00,
2013-04-21 21:42:00,40.0,40.0,-100.00,SSE,160,4.0,9.0,98,-99.99,,,-99.99,,2013-04-22 02:42:00,
2013-04-21 21:52:00,40.0,40.0,-100.00,SSE,160,4.0,9.0,98,-99.99,,,-99.99,,2013-04-22 02:52:00,
2013-04-21 22:02:00,40.0,40.0,-100.00,SSE,160,4.0,9.0,98,-99.99,,,-99.99,,2013-04-22 03:02:00,
2013-04-21 22:11:00,40.0,40.0,-100.00,SSE,160,4.0,9.0,98,-99.99,,,-99.99,,2013-04-22 03:11:00,
2013-04-21 22:20:00,41.0,40.0,-100.00,SW,235,4.0,5.0,98,-99.99,,,-99.99,,2013-04-22 03:20:00,
2013-04-21 22:43:00,41.0,40.0,-100.00,SW,235,4.0,5.0,98,-99.99,,,-99.99,,2013-04-22 03:43:00,
2013-04-21 22:53:00,41.0,40.0,-100.00,SW,235,4.0,5.0,98,-99.99,,,-99.99,,2013-04-22 03:53:00,
2013-04-21 23:03:00,41.0,40.0,-100.00,SW,235,4.0,5.0,98,-99.99,,,-99.99,,2013-04-22 04:03:00,
2013-04-21 23:12:00,41.0,40.0,-100.00,SW,235,4.0,5.0,98,-99.99,,,-99.99,,2013-04-22 04:12:00,
2013-04-21 23:43:00,40.0,39.0,-100.00,WSW,255,7.0,11.0,98,-99.99,,,-99.99,,2013-04-22 04:43:00,
2013-04-21 23:53:00,40.0,39.0,-100.00,WSW,255,7.0,11.0,98,-99.99,,,-99.99,,2013-04-22 04:53:00,